createdAt,value
2018-08-31T00:01:45.876Z,101475.43
2018-08-31T00:04:43.836Z,101472.59
2018-08-31T00:07:29.272Z,101475.80
2018-08-31T00:12:51.496Z,101478.67
2018-08-31T00:15:22.092Z,101478.99
2018-08-31T00:17:52.547Z,101481.75
2018-08-31T00:20:23.060Z,101477.48
2018-08-31T00:22:53.633Z,101472.16
2018-08-31T00:26:11.090Z,101472.09
2018-08-31T00:29:43.563Z,101468.27
2018-08-31T00:34:40.714Z,101470.39
2018-08-31T00:41:38.474Z,101466.63
2018-08-31T00:45:06.260Z,101467.13
2018-08-31T00:47:36.715Z,101467.24
2018-08-31T00:50:07.199Z,101462.66
2018-08-31T00:52:37.713Z,101469.15
2018-08-31T00:55:08.864Z,101464.66
2018-08-31T00:57:39.157Z,101469.59
2018-08-31T01:00:09.683Z,101470.73
2018-08-31T01:02:39.988Z,101474.70
2018-08-31T01:05:10.460Z,101472.53
2018-08-31T01:07:40.660Z,101474.21
2018-08-31T01:10:11.630Z,101473.87
2018-08-31T01:12:42.044Z,101469.30
2018-08-31T01:15:12.317Z,101472.59
2018-08-31T01:17:42.496Z,101468.61
2018-08-31T01:20:13.063Z,101467.32
2018-08-31T01:22:43.619Z,101478.61
2018-08-31T01:25:14.220Z,101474.50
2018-08-31T01:27:44.993Z,101473.60
2018-08-31T01:30:15.688Z,101475.17
2018-08-31T01:32:46.156Z,101475.02
2018-08-31T01:35:16.529Z,101470.91
2018-08-31T01:37:47.010Z,101479.13
2018-08-31T01:40:17.478Z,101479.53
2018-08-31T01:42:47.965Z,101484.61
2018-08-31T01:45:18.388Z,101479.81
2018-08-31T01:47:48.896Z,101471.70
2018-08-31T01:50:19.251Z,101475.84
2018-08-31T01:52:49.574Z,101473.34
2018-08-31T01:55:24.753Z,101478.53
2018-08-31T01:57:55.204Z,101482.92
2018-08-31T02:00:25.882Z,101481.41
2018-08-31T02:02:56.530Z,101480.87
2018-08-31T02:05:27.124Z,101478.19
2018-08-31T02:07:57.501Z,101477.91
2018-08-31T02:10:27.889Z,101487.41
2018-08-31T02:12:58.379Z,101478.24
2018-08-31T02:15:28.928Z,101476.50
2018-08-31T02:17:59.508Z,101489.48
2018-08-31T02:20:30.012Z,101488.31
2018-08-31T02:23:00.488Z,101486.03
2018-08-31T02:25:30.861Z,101484.22
2018-08-31T02:28:01.366Z,101487.69
2018-08-31T02:30:31.732Z,101487.28
2018-08-31T02:33:02.199Z,101485.72
2018-08-31T02:35:32.711Z,101486.46
2018-08-31T02:38:03.208Z,101488.38
2018-08-31T02:40:33.644Z,101482.22
2018-08-31T02:43:04.527Z,101487.30
2018-08-31T02:45:35.095Z,101485.02
2018-08-31T02:48:05.549Z,101492.55
2018-08-31T02:50:36.025Z,101491.22
2018-08-31T02:53:06.419Z,101484.27
2018-08-31T02:55:36.725Z,101482.53
2018-08-31T02:58:07.192Z,101477.73
2018-08-31T03:00:37.548Z,101474.62
2018-08-31T03:03:08.149Z,101473.23
2018-08-31T03:05:38.524Z,101476.93
2018-08-31T03:08:09.124Z,101474.64
2018-08-31T03:10:39.615Z,101471.93
2018-08-31T03:13:09.880Z,101477.58
2018-08-31T03:15:40.311Z,101473.45
2018-08-31T03:18:10.747Z,101473.83
2018-08-31T03:20:41.168Z,101469.83
2018-08-31T03:23:11.431Z,101466.66
2018-08-31T03:25:41.940Z,101463.84
2018-08-31T03:28:12.501Z,101464.56
2018-08-31T03:30:43.128Z,101460.50
2018-08-31T03:33:13.640Z,101461.54
2018-08-31T03:35:44.136Z,101461.19
2018-08-31T03:38:14.562Z,101456.61
2018-08-31T03:40:44.930Z,101461.02
2018-08-31T03:43:15.324Z,101459.09
2018-08-31T03:45:45.736Z,101454.02
2018-08-31T03:48:16.116Z,101460.22
2018-08-31T03:50:47.217Z,101458.02
2018-08-31T03:53:17.718Z,101460.47
2018-08-31T03:55:48.033Z,101465.23
2018-08-31T03:58:18.231Z,101475.66
2018-08-31T04:00:48.608Z,101470.53
2018-08-31T04:03:18.883Z,101477.84
2018-08-31T04:05:49.295Z,101478.44
2018-08-31T04:08:19.563Z,101486.38
2018-08-31T04:10:50.017Z,101487.96
2018-08-31T04:13:20.292Z,101484.48
2018-08-31T04:15:50.808Z,101491.97
2018-08-31T04:18:21.298Z,101487.33
2018-08-31T04:20:51.536Z,101487.38
2018-08-31T04:23:21.819Z,101489.78
2018-08-31T04:25:52.277Z,101489.45
2018-08-31T04:28:22.903Z,101488.85
2018-08-31T04:30:53.548Z,101493.24
2018-08-31T04:33:23.963Z,101493.48
2018-08-31T04:35:54.324Z,101488.31
2018-08-31T04:38:24.835Z,101485.23
2018-08-31T04:40:55.531Z,101489.86
2018-08-31T04:43:25.895Z,101495.50
2018-08-31T04:45:56.363Z,101483.77
2018-08-31T04:48:26.964Z,101486.70
2018-08-31T04:50:57.510Z,101491.44
2018-08-31T04:53:27.929Z,101494.90
2018-08-31T04:55:58.557Z,101488.71
2018-08-31T04:58:29.099Z,101496.36
2018-08-31T05:00:59.332Z,101495.02
2018-08-31T05:03:29.873Z,101497.41
2018-08-31T05:06:00.249Z,101489.67
2018-08-31T05:08:30.737Z,101493.03
2018-08-31T05:11:01.385Z,101502.80
2018-08-31T05:13:31.979Z,101503.50
2018-08-31T05:16:02.519Z,101497.08
2018-08-31T05:18:32.997Z,101496.25
2018-08-31T05:21:03.483Z,101497.27
2018-08-31T05:23:33.830Z,101495.66
2018-08-31T05:26:04.285Z,101492.66
2018-08-31T05:28:35.040Z,101499.91
2018-08-31T05:31:05.516Z,101494.50
2018-08-31T05:33:36.067Z,101501.50
2018-08-31T05:36:06.439Z,101493.67
2018-08-31T05:38:36.800Z,101497.67
2018-08-31T05:41:07.468Z,101497.89
2018-08-31T05:43:37.935Z,101505.59
2018-08-31T05:46:09.049Z,101501.97
2018-08-31T05:48:41.491Z,101509.73
2018-08-31T05:51:11.908Z,101509.97
2018-08-31T05:53:42.684Z,101511.42
2018-08-31T05:56:13.074Z,101511.33
2018-08-31T05:58:43.461Z,101516.15
2018-08-31T06:01:13.958Z,101513.55
2018-08-31T06:03:44.431Z,101512.81
2018-08-31T06:06:14.895Z,101516.45
2018-08-31T06:08:45.484Z,101517.51
2018-08-31T06:11:16.050Z,101512.34
2018-08-31T06:13:46.505Z,101523.09
2018-08-31T06:16:17.035Z,101519.75
2018-08-31T06:18:47.475Z,101522.19
2018-08-31T06:21:17.883Z,101518.41
2018-08-31T06:23:48.233Z,101519.63
2018-08-31T06:26:20.032Z,101522.08
2018-08-31T06:28:50.434Z,101524.05
2018-08-31T06:31:20.970Z,101518.92
2018-08-31T06:33:51.560Z,101522.27
2018-08-31T06:36:21.964Z,101521.00
2018-08-31T06:38:52.384Z,101528.72
2018-08-31T06:41:22.881Z,101531.59
2018-08-31T06:43:53.435Z,101534.13
2018-08-31T06:46:23.753Z,101533.25
2018-08-31T06:48:54.117Z,101538.03
2018-08-31T06:51:24.541Z,101535.80
2018-08-31T06:53:55.352Z,101535.45
2018-08-31T06:56:25.600Z,101534.65
2018-08-31T06:58:56.067Z,101541.59
2018-08-31T07:01:26.656Z,101540.80
2018-08-31T07:03:57.090Z,101536.00
2018-08-31T07:06:27.444Z,101547.95
2018-08-31T07:08:57.837Z,101546.11
2018-08-31T07:11:28.366Z,101549.32
2018-08-31T07:13:58.788Z,101554.24
2018-08-31T07:16:29.157Z,101546.75
2018-08-31T07:18:59.865Z,101549.76
2018-08-31T07:21:30.486Z,101552.98
2018-08-31T07:24:00.695Z,101558.97
2018-08-31T07:26:31.518Z,101561.25
2018-08-31T07:29:01.869Z,101554.76
2018-08-31T07:31:32.460Z,101562.85
2018-08-31T07:34:02.985Z,101562.70
2018-08-31T07:36:33.422Z,101569.44
2018-08-31T07:39:04.099Z,101570.73
2018-08-31T07:41:34.731Z,101565.68
2018-08-31T07:44:05.091Z,101565.45
2018-08-31T07:46:35.559Z,101566.13
2018-08-31T07:49:06.148Z,101562.86
2018-08-31T07:51:36.576Z,101569.13
2018-08-31T07:54:07.125Z,101562.53
2018-08-31T07:56:37.480Z,101571.70
2018-08-31T07:59:07.760Z,101576.41
2018-08-31T08:01:38.111Z,101583.95
2018-08-31T08:04:08.812Z,101581.89
2018-08-31T08:06:39.214Z,101582.61
2018-08-31T08:09:10.929Z,101584.46
2018-08-31T08:11:41.344Z,101582.41
2018-08-31T08:14:11.921Z,101585.97
2018-08-31T08:16:42.310Z,101586.74
2018-08-31T08:19:12.916Z,101592.06
2018-08-31T08:21:43.492Z,101585.89
2018-08-31T08:24:14.049Z,101591.12
2018-08-31T08:26:44.609Z,101593.72
2018-08-31T08:29:14.876Z,101592.95
2018-08-31T08:31:45.344Z,101605.16
2018-08-31T08:34:15.829Z,101601.77
2018-08-31T08:36:46.765Z,101598.17
2018-08-31T08:39:17.209Z,101598.67
2018-08-31T08:41:47.739Z,101600.36
2018-08-31T08:44:18.065Z,101599.16
2018-08-31T08:46:48.299Z,101593.47
2018-08-31T08:49:18.644Z,101600.08
2018-08-31T08:51:49.068Z,101606.86
2018-08-31T08:54:19.188Z,101605.60
2018-08-31T08:56:49.491Z,101607.14
2018-08-31T08:59:19.894Z,101609.09
2018-08-31T09:01:50.396Z,101605.98
2018-08-31T09:04:20.593Z,101605.16
2018-08-31T09:06:51.012Z,101607.63
2018-08-31T09:09:21.400Z,101608.59
2018-08-31T09:11:51.748Z,101598.71
2018-08-31T09:14:22.209Z,101600.66
2018-08-31T09:16:52.584Z,101601.82
2018-08-31T09:19:22.780Z,101594.95
2018-08-31T09:21:53.235Z,101598.88
2018-08-31T09:24:23.459Z,101600.94
2018-08-31T09:26:53.839Z,101590.53
2018-08-31T09:29:24.308Z,101590.41
2018-08-31T09:31:54.849Z,101593.84
2018-08-31T09:34:25.292Z,101592.19
2018-08-31T09:36:55.722Z,101588.95
2018-08-31T09:39:26.232Z,101591.15
2018-08-31T09:41:56.580Z,101585.79
2018-08-31T09:44:26.983Z,101588.77
2018-08-31T09:46:57.339Z,101583.02
2018-08-31T09:49:27.729Z,101585.92
2018-08-31T09:51:58.278Z,101579.48
2018-08-31T09:54:28.710Z,101582.97
2018-08-31T09:56:59.431Z,101581.30
2018-08-31T09:59:29.771Z,101579.55
2018-08-31T10:02:07.031Z,101576.86
2018-08-31T10:04:37.536Z,101577.64
2018-08-31T10:07:09.017Z,101576.30
2018-08-31T10:09:39.516Z,101576.59
2018-08-31T10:12:10.596Z,101568.20
2018-08-31T10:14:41.007Z,101574.09
2018-08-31T10:17:11.569Z,101566.61
2018-08-31T10:19:41.912Z,101566.88
2018-08-31T10:22:12.339Z,101564.94
2018-08-31T10:24:42.703Z,101558.48
2018-08-31T10:27:13.004Z,101568.19
2018-08-31T10:29:43.580Z,101557.22
2018-08-31T10:32:14.073Z,101555.95
2018-08-31T10:34:44.439Z,101559.66
2018-08-31T10:37:14.703Z,101556.23
2018-08-31T10:39:45.312Z,101555.73
2018-08-31T10:42:15.800Z,101548.44
2018-08-31T10:44:46.127Z,101561.47
2018-08-31T10:47:16.336Z,101551.10
2018-08-31T10:49:46.812Z,101545.58
2018-08-31T10:52:17.192Z,101552.09
2018-08-31T10:54:47.748Z,101556.00
2018-08-31T10:57:18.183Z,101560.19
2018-08-31T10:59:48.508Z,101553.06
2018-08-31T11:02:18.805Z,101556.06
2018-08-31T11:04:49.185Z,101557.94
2018-08-31T11:07:19.435Z,101561.88
2018-08-31T11:09:49.789Z,101558.05
2018-08-31T11:12:20.265Z,101558.38
2018-08-31T11:14:50.738Z,101555.56
2018-08-31T11:17:21.132Z,101555.76
2018-08-31T11:19:51.338Z,101558.63
2018-08-31T11:22:21.844Z,101557.33
2018-08-31T11:24:52.618Z,101560.33
2018-08-31T11:27:23.007Z,101560.06
2018-08-31T11:29:53.506Z,101551.80
2018-08-31T11:32:24.314Z,101554.83
2018-08-31T11:34:54.773Z,101554.91
2018-08-31T11:37:25.276Z,101551.58
2018-08-31T11:39:55.616Z,101555.19
2018-08-31T11:42:26.004Z,101552.44
2018-08-31T11:44:56.502Z,101557.71
2018-08-31T11:47:27.000Z,101559.20
2018-08-31T11:49:57.550Z,101557.41
2018-08-31T11:52:28.052Z,101555.24
2018-08-31T11:54:58.544Z,101555.47
2018-08-31T11:57:29.125Z,101556.41
2018-08-31T11:59:59.473Z,101559.58
2018-08-31T12:02:29.866Z,101557.91
2018-08-31T12:05:00.334Z,101554.92
2018-08-31T12:07:30.647Z,101560.30
2018-08-31T12:10:00.901Z,101557.60
2018-08-31T12:12:31.402Z,101554.70
2018-08-31T12:15:01.912Z,101560.08
2018-08-31T12:17:32.476Z,101558.55
2018-08-31T12:20:03.163Z,101555.95
2018-08-31T12:22:33.757Z,101550.71
2018-08-31T12:25:04.327Z,101551.05
2018-08-31T12:27:34.908Z,101550.83
2018-08-31T12:30:05.376Z,101547.62
2018-08-31T12:32:35.977Z,101544.86
2018-08-31T12:35:06.539Z,101549.73
2018-08-31T12:37:37.005Z,101548.59
2018-08-31T12:40:08.065Z,101544.80
2018-08-31T12:42:38.431Z,101543.88
2018-08-31T12:45:08.952Z,101546.61
2018-08-31T12:47:39.636Z,101542.55
2018-08-31T12:50:10.241Z,101539.11
2018-08-31T12:52:40.689Z,101538.37
2018-08-31T12:55:11.008Z,101531.69
2018-08-31T12:57:41.344Z,101532.70
2018-08-31T13:00:12.053Z,101535.67
2018-08-31T13:02:42.588Z,101531.08
2018-08-31T13:05:13.184Z,101530.43
2018-08-31T13:07:43.679Z,101526.72
2018-08-31T13:10:14.180Z,101526.62
2018-08-31T13:12:44.481Z,101530.56
2018-08-31T13:15:15.008Z,101528.27
2018-08-31T13:17:45.392Z,101531.33
2018-08-31T13:20:15.772Z,101532.08
2018-08-31T13:22:46.565Z,101527.35
2018-08-31T13:25:17.249Z,101525.02
2018-08-31T13:27:47.700Z,101523.43
2018-08-31T13:30:18.128Z,101509.96
2018-08-31T13:32:48.672Z,101504.44
2018-08-31T13:35:18.993Z,101512.61
2018-08-31T13:37:49.230Z,101510.73
2018-08-31T13:40:19.726Z,101503.69
2018-08-31T13:42:50.025Z,101505.27
2018-08-31T13:45:20.285Z,101502.36
2018-08-31T13:47:50.736Z,101502.86
2018-08-31T13:50:21.154Z,101499.36
2018-08-31T13:52:51.709Z,101511.77
2018-08-31T13:55:21.950Z,101503.61
2018-08-31T13:57:52.251Z,101515.14
2018-08-31T14:00:23.397Z,101510.86
2018-08-31T14:02:53.815Z,101512.59
2018-08-31T14:05:24.274Z,101507.44
2018-08-31T14:07:54.628Z,101513.69
2018-08-31T14:10:24.926Z,101517.75
2018-08-31T14:12:55.493Z,101506.70
2018-08-31T14:15:25.595Z,101512.70
2018-08-31T14:17:56.004Z,101507.83
2018-08-31T14:20:26.216Z,101508.37
2018-08-31T14:22:56.595Z,101509.75
2018-08-31T14:25:26.999Z,101512.43
2018-08-31T14:27:57.223Z,101506.92
2018-08-31T14:30:27.521Z,101511.52
2018-08-31T14:32:57.905Z,101510.02
2018-08-31T14:35:28.231Z,101511.98
2018-08-31T14:37:58.524Z,101518.63
2018-08-31T14:40:28.970Z,101518.02
2018-08-31T14:42:59.257Z,101518.78
2018-08-31T14:45:29.765Z,101516.73
2018-08-31T14:48:00.251Z,101517.89
2018-08-31T14:50:30.612Z,101517.39
2018-08-31T14:53:00.871Z,101520.56
2018-08-31T14:55:31.340Z,101518.22
2018-08-31T14:58:01.642Z,101516.60
2018-08-31T15:00:32.064Z,101517.46
2018-08-31T15:03:02.464Z,101513.52
2018-08-31T15:05:33.080Z,101514.91
2018-08-31T15:08:03.990Z,101512.30
2018-08-31T15:10:34.339Z,101515.08
2018-08-31T15:13:05.042Z,101518.12
2018-08-31T15:15:35.507Z,101515.34
2018-08-31T15:18:06.959Z,101519.47
2018-08-31T15:20:37.292Z,101521.62
2018-08-31T15:23:07.967Z,101525.22
2018-08-31T15:25:38.580Z,101521.34
2018-08-31T15:28:08.814Z,101519.09
2018-08-31T15:30:39.085Z,101522.62
2018-08-31T15:33:09.448Z,101526.91
2018-08-31T15:35:39.911Z,101514.59
2018-08-31T15:38:10.348Z,101519.76
2018-08-31T15:40:40.744Z,101519.53
2018-08-31T15:43:11.304Z,101522.55
2018-08-31T15:45:42.163Z,101513.52
2018-08-31T15:48:12.413Z,101512.11
2018-08-31T15:50:42.983Z,101513.91
2018-08-31T15:53:13.288Z,101516.28
2018-08-31T15:55:43.626Z,101512.58
2018-08-31T15:58:14.052Z,101509.69
2018-08-31T16:00:44.481Z,101511.13
2018-08-31T16:03:14.694Z,101510.19
2018-08-31T16:05:45.025Z,101515.30
2018-08-31T16:08:15.371Z,101516.62
2018-08-31T16:10:45.693Z,101519.83
2018-08-31T16:13:16.014Z,101519.17
2018-08-31T16:15:46.426Z,101521.48
2018-08-31T16:18:16.834Z,101525.17
2018-08-31T16:20:47.221Z,101524.03
2018-08-31T16:23:17.531Z,101535.17
2018-08-31T16:25:47.975Z,101541.66
2018-08-31T16:28:18.303Z,101540.47
2018-08-31T16:30:48.864Z,101535.49
2018-08-31T16:33:19.259Z,101535.92
2018-08-31T16:35:49.767Z,101531.75
2018-08-31T16:38:20.210Z,101532.11
2018-08-31T16:40:50.668Z,101531.17
2018-08-31T16:43:20.884Z,101536.70
2018-08-31T16:45:51.329Z,101538.98
2018-08-31T16:48:21.614Z,101537.66
2018-08-31T16:50:51.954Z,101541.53
2018-08-31T16:53:22.541Z,101534.77
2018-08-31T16:55:53.041Z,101536.55
2018-08-31T16:58:23.403Z,101530.67
2018-08-31T17:00:53.889Z,101525.36
2018-08-31T17:03:24.367Z,101526.78
2018-08-31T17:05:54.755Z,101536.19
2018-08-31T17:08:25.139Z,101532.55
2018-08-31T17:10:55.500Z,101545.24
2018-08-31T17:13:25.830Z,101546.56
2018-08-31T17:15:56.408Z,101545.34
2018-08-31T17:18:26.709Z,101545.52
2018-08-31T17:20:57.057Z,101544.64
2018-08-31T17:23:27.368Z,101549.06
2018-08-31T17:25:57.972Z,101550.83
2018-08-31T17:28:33.200Z,101561.88
2018-08-31T17:31:08.704Z,101564.05
2018-08-31T17:33:44.145Z,101559.67
2018-08-31T17:36:19.440Z,101562.94
2018-08-31T17:38:49.919Z,101563.75
2018-08-31T17:41:20.228Z,101573.46
2018-08-31T17:43:50.719Z,101575.35
2018-08-31T17:46:21.173Z,101573.39
2018-08-31T17:48:51.900Z,101583.05
2018-08-31T17:51:22.347Z,101577.75
2018-08-31T17:53:53.103Z,101581.50
2018-08-31T17:56:23.714Z,101573.28
2018-08-31T17:58:54.209Z,101581.94
2018-08-31T18:01:24.776Z,101583.73
2018-08-31T18:03:55.187Z,101585.13
2018-08-31T18:06:25.403Z,101589.13
2018-08-31T18:08:55.661Z,101593.33
2018-08-31T18:11:26.034Z,101595.54
2018-08-31T18:13:56.553Z,101599.52
2018-08-31T18:16:27.056Z,101605.12
2018-08-31T18:18:57.376Z,101606.52
2018-08-31T18:21:27.742Z,101611.34
2018-08-31T18:23:58.071Z,101611.16
2018-08-31T18:26:28.653Z,101616.77
2018-08-31T18:28:58.902Z,101613.72
2018-08-31T18:31:29.281Z,101610.33
2018-08-31T18:33:59.564Z,101616.05
2018-08-31T18:36:30.180Z,101612.00
2018-08-31T18:39:00.657Z,101612.58
2018-08-31T18:41:31.085Z,101617.20
2018-08-31T18:44:01.388Z,101620.45
2018-08-31T18:46:31.761Z,101619.98
2018-08-31T18:49:02.366Z,101627.55
2018-08-31T18:51:32.677Z,101623.80
2018-08-31T18:54:03.076Z,101622.80
2018-08-31T18:56:33.575Z,101622.96
2018-08-31T18:59:04.114Z,101626.27
2018-08-31T19:01:34.534Z,101634.50
2018-08-31T19:04:05.032Z,101634.58
2018-08-31T19:06:35.903Z,101636.98
2018-08-31T19:09:08.017Z,101641.98
2018-08-31T19:11:38.762Z,101644.41
2018-08-31T19:14:09.811Z,101646.08
2018-08-31T19:16:41.004Z,101648.38
2018-08-31T19:19:12.329Z,101648.91
2018-08-31T19:21:43.544Z,101654.83
2018-08-31T19:24:15.180Z,101662.40
2018-08-31T19:26:46.504Z,101662.71
2018-08-31T19:29:17.884Z,101659.70
2018-08-31T19:31:49.004Z,101657.05
2018-08-31T19:34:20.076Z,101657.20
2018-08-31T19:36:51.435Z,101656.80
2018-08-31T19:39:22.333Z,101661.21
2018-08-31T19:41:53.233Z,101659.66
2018-08-31T19:44:24.120Z,101661.85
2018-08-31T19:46:54.973Z,101665.69
2018-08-31T19:49:25.764Z,101666.75
2018-08-31T19:51:56.366Z,101658.67
2018-08-31T19:54:26.838Z,101659.33
2018-08-31T19:56:57.344Z,101661.30
2018-08-31T19:59:28.392Z,101668.50
2018-08-31T20:01:58.853Z,101671.18
2018-08-31T20:04:29.262Z,101670.20
2018-08-31T20:06:59.785Z,101670.28
2018-08-31T20:09:30.091Z,101669.88
2018-08-31T20:12:00.406Z,101673.83
2018-08-31T20:14:30.768Z,101676.58
2018-08-31T20:17:01.672Z,101681.65
2018-08-31T20:19:32.082Z,101679.55
2018-08-31T20:22:02.479Z,101680.30
2018-08-31T20:24:32.844Z,101681.72
2018-08-31T20:27:03.195Z,101687.00
2018-08-31T20:29:33.588Z,101686.35
2018-08-31T20:32:03.922Z,101695.87
2018-08-31T20:34:34.248Z,101695.21
2018-08-31T20:37:04.644Z,101704.41
2018-08-31T20:39:35.011Z,101705.77
2018-08-31T20:42:05.271Z,101714.36
2018-08-31T20:44:35.625Z,101707.71
2018-08-31T20:47:06.287Z,101710.93
2018-08-31T20:49:36.759Z,101714.22
2018-08-31T20:52:07.433Z,101716.72
2018-08-31T20:54:38.016Z,101720.20
2018-08-31T20:57:08.391Z,101723.02
2018-08-31T20:59:38.635Z,101728.05
2018-08-31T21:02:09.163Z,101723.59
2018-08-31T21:04:39.527Z,101725.95
2018-08-31T21:07:09.975Z,101723.09
2018-08-31T21:09:40.344Z,101725.51
2018-08-31T21:12:10.599Z,101726.62
2018-08-31T21:14:41.093Z,101721.67
2018-08-31T21:17:11.393Z,101723.30
2018-08-31T21:19:41.860Z,101725.95
2018-08-31T21:22:12.019Z,101726.62
2018-08-31T21:24:42.384Z,101731.69
2018-08-31T21:27:12.780Z,101729.23
2018-08-31T21:29:43.196Z,101724.92
2018-08-31T21:32:13.495Z,101724.84
2018-08-31T21:34:43.775Z,101731.17
2018-08-31T21:37:14.132Z,101735.25
2018-08-31T21:39:44.580Z,101737.28
2018-08-31T21:42:14.912Z,101738.19
2018-08-31T21:44:45.208Z,101746.28
2018-08-31T21:47:15.509Z,101742.68
2018-08-31T21:49:45.760Z,101749.79
2018-08-31T21:52:16.218Z,101749.89
2018-08-31T21:54:46.719Z,101745.22
2018-08-31T21:57:17.112Z,101746.78
2018-08-31T21:59:47.529Z,101734.67
2018-08-31T22:02:17.788Z,101738.31
2018-08-31T22:04:48.137Z,101735.91
2018-08-31T22:07:18.532Z,101741.95
2018-08-31T22:09:48.907Z,101744.08
2018-08-31T22:12:19.226Z,101743.81
2018-08-31T22:14:49.686Z,101745.75
2018-08-31T22:17:19.993Z,101750.25
2018-08-31T22:19:50.349Z,101740.20
2018-08-31T22:22:20.724Z,101741.22
2018-08-31T22:24:51.183Z,101745.28
2018-08-31T22:27:22.077Z,101750.89
2018-08-31T22:29:52.581Z,101749.41
2018-08-31T22:32:22.924Z,101743.02
2018-08-31T22:34:53.543Z,101740.95
2018-08-31T22:37:23.831Z,101743.22
2018-08-31T22:39:54.240Z,101737.42
2018-08-31T22:42:24.596Z,101739.47
2018-08-31T22:44:54.923Z,101744.80
2018-08-31T22:47:25.401Z,101738.34
2018-08-31T22:49:55.557Z,101739.80
2018-08-31T22:52:26.044Z,101736.64
2018-08-31T22:54:56.351Z,101739.30
2018-08-31T22:57:26.799Z,101738.28
2018-08-31T22:59:57.248Z,101744.78
2018-08-31T23:02:27.637Z,101740.69
2018-08-31T23:04:58.073Z,101748.05
2018-08-31T23:07:33.503Z,101745.88
2018-08-31T23:10:03.888Z,101742.17
2018-08-31T23:12:34.300Z,101746.68
2018-08-31T23:15:04.836Z,101750.41
2018-08-31T23:17:35.267Z,101744.59
2018-08-31T23:20:05.597Z,101749.78
2018-08-31T23:22:35.888Z,101745.54
2018-08-31T23:25:06.472Z,101744.73
2018-08-31T23:27:36.919Z,101747.24
2018-08-31T23:30:07.973Z,101748.89
2018-08-31T23:32:38.356Z,101743.77
2018-08-31T23:35:08.800Z,101746.09
2018-08-31T23:37:39.091Z,101738.87
2018-08-31T23:40:09.444Z,101739.94
2018-08-31T23:42:39.920Z,101740.98
2018-08-31T23:45:10.787Z,101744.56
2018-08-31T23:47:41.204Z,101748.95
2018-08-31T23:50:11.684Z,101740.08
2018-08-31T23:52:41.975Z,101736.56
2018-08-31T23:55:12.355Z,101742.97
2018-08-31T23:57:42.862Z,101742.05
